createdAt,value
2018-05-21T00:00:53.774Z,12.98
2018-05-21T00:02:02.418Z,13.01
2018-05-21T00:03:11.066Z,12.9
2018-05-21T00:04:19.710Z,12.98
2018-05-21T00:05:28.627Z,12.93
2018-05-21T00:06:37.277Z,12.98
2018-05-21T00:07:45.926Z,12.98
2018-05-21T00:08:54.565Z,12.84
2018-05-21T00:10:03.213Z,12.95
2018-05-21T00:11:11.851Z,12.98
2018-05-21T00:12:20.501Z,12.95
2018-05-21T00:13:29.150Z,12.84
2018-05-21T00:14:37.797Z,12.98
2018-05-21T00:15:46.437Z,12.86
2018-05-21T00:16:55.077Z,12.88
2018-05-21T00:18:03.990Z,12.9
2018-05-21T00:19:12.635Z,12.88
2018-05-21T00:20:21.281Z,12.87
2018-05-21T00:21:30.182Z,12.86
2018-05-21T00:22:38.830Z,12.8
2018-05-21T00:23:47.476Z,12.8
2018-05-21T00:24:56.117Z,12.73
2018-05-21T00:26:04.758Z,12.75
2018-05-21T00:27:13.405Z,12.72
2018-05-21T00:28:22.050Z,12.66
2018-05-21T00:29:30.696Z,12.72
2018-05-21T00:30:39.335Z,12.7
2018-05-21T00:31:47.981Z,12.66
2018-05-21T00:32:56.886Z,12.61
2018-05-21T00:34:05.533Z,12.63
2018-05-21T00:35:14.179Z,12.65
2018-05-21T00:36:22.819Z,12.62
2018-05-21T00:37:31.463Z,12.68
2018-05-21T00:38:40.107Z,12.63
2018-05-21T00:39:48.757Z,12.72
2018-05-21T00:40:57.660Z,12.58
2018-05-21T00:42:06.302Z,12.65
2018-05-21T00:43:14.944Z,12.61
2018-05-21T00:44:23.588Z,12.63
2018-05-21T00:45:32.226Z,12.55
2018-05-21T00:46:40.872Z,12.58
2018-05-21T00:47:49.513Z,12.51
2018-05-21T00:48:58.157Z,12.57
2018-05-21T00:50:06.803Z,12.48
2018-05-21T00:51:15.709Z,12.57
2018-05-21T00:52:24.612Z,12.53
2018-05-21T00:53:33.253Z,12.53
2018-05-21T00:54:41.902Z,12.48
2018-05-21T00:55:50.547Z,12.4
2018-05-21T00:56:59.459Z,12.39
2018-05-21T00:58:08.364Z,12.4
2018-05-21T00:59:17.019Z,12.37
2018-05-21T01:00:25.663Z,12.44
2018-05-21T01:01:34.306Z,12.39
2018-05-21T01:02:43.208Z,12.37
2018-05-21T01:03:51.858Z,12.35
2018-05-21T01:05:00.498Z,12.35
2018-05-21T01:06:09.143Z,12.26
2018-05-21T01:07:17.783Z,12.36
2018-05-21T01:08:26.436Z,12.25
2018-05-21T01:09:35.350Z,12.25
2018-05-21T01:10:43.994Z,12.29
2018-05-21T01:11:52.639Z,12.29
2018-05-21T01:13:01.278Z,12.23
2018-05-21T01:14:09.924Z,12.29
2018-05-21T01:15:18.567Z,12.14
2018-05-21T01:16:27.480Z,12.3
2018-05-21T01:17:36.117Z,12.14
2018-05-21T01:18:44.759Z,12.23
2018-05-21T01:19:53.401Z,12.2
2018-05-21T01:21:02.055Z,12.15
2018-05-21T01:22:10.958Z,12.21
2018-05-21T01:23:19.605Z,12.15
2018-05-21T01:24:28.245Z,12.21
2018-05-21T01:25:36.894Z,12.18
2018-05-21T01:26:45.536Z,12.23
2018-05-21T01:27:54.180Z,12.12
2018-05-21T01:29:02.820Z,12.14
2018-05-21T01:30:11.461Z,12.17
2018-05-21T01:31:20.106Z,12.14
2018-05-21T01:32:29.015Z,12.25
2018-05-21T01:33:37.656Z,12.28
2018-05-21T01:34:46.295Z,12.18
2018-05-21T01:35:54.944Z,12.28
2018-05-21T01:37:03.588Z,12.28
2018-05-21T01:38:12.232Z,12.23
2018-05-21T01:39:20.870Z,12.26
2018-05-21T01:40:29.516Z,12.43
2018-05-21T01:41:38.156Z,12.43
2018-05-21T01:42:46.802Z,12.53
2018-05-21T01:43:55.439Z,12.48
2018-05-21T01:45:04.089Z,12.5
2018-05-21T01:46:12.733Z,12.5
2018-05-21T01:47:21.379Z,12.54
2018-05-21T01:48:30.026Z,12.54
2018-05-21T01:49:38.670Z,12.45
2018-05-21T01:50:47.309Z,12.55
2018-05-21T01:51:56.222Z,12.61
2018-05-21T01:53:04.867Z,12.63
2018-05-21T01:54:13.509Z,12.68
2018-05-21T01:55:22.417Z,12.65
2018-05-21T01:56:31.063Z,12.65
2018-05-21T01:57:39.715Z,12.65
2018-05-21T01:58:48.607Z,12.62
2018-05-21T01:59:57.251Z,12.55
2018-05-21T02:01:05.894Z,12.54
2018-05-21T02:02:14.546Z,12.61
2018-05-21T02:03:23.186Z,12.5
2018-05-21T02:04:31.829Z,12.48
2018-05-21T02:05:40.471Z,12.45
2018-05-21T02:06:49.375Z,12.53
2018-05-21T02:07:58.028Z,12.48
2018-05-21T02:09:06.667Z,12.37
2018-05-21T02:10:15.315Z,12.45
2018-05-21T02:11:23.952Z,12.39
2018-05-21T02:12:32.878Z,12.43
2018-05-21T02:13:41.520Z,12.45
2018-05-21T02:14:50.165Z,12.47
2018-05-21T02:15:58.799Z,12.55
2018-05-21T02:17:07.727Z,12.51
2018-05-21T02:18:16.634Z,12.57
2018-05-21T02:19:25.590Z,12.61
2018-05-21T02:20:34.181Z,12.62
2018-05-21T02:21:42.826Z,12.65
2018-05-21T02:22:51.474Z,12.63
2018-05-21T02:24:00.383Z,12.68
2018-05-21T02:25:09.029Z,12.62
2018-05-21T02:26:17.664Z,12.58
2018-05-21T02:27:26.311Z,12.53
2018-05-21T02:28:35.220Z,12.51
2018-05-21T02:29:43.873Z,12.5
2018-05-21T02:30:52.779Z,12.48
2018-05-21T02:32:01.696Z,12.51
2018-05-21T02:33:10.353Z,12.5
2018-05-21T02:34:19.013Z,12.43
2018-05-21T02:35:27.917Z,12.55
2018-05-21T02:36:36.573Z,12.43
2018-05-21T02:37:45.204Z,12.4
2018-05-21T02:38:53.859Z,12.36
2018-05-21T02:40:02.504Z,12.43
2018-05-21T02:41:11.143Z,12.39
2018-05-21T02:42:19.784Z,12.39
2018-05-21T02:43:28.428Z,12.33
2018-05-21T02:44:37.078Z,12.4
2018-05-21T02:45:45.716Z,12.36
2018-05-21T02:46:54.364Z,12.39
2018-05-21T02:48:02.996Z,12.39
2018-05-21T02:49:11.647Z,12.32
2018-05-21T02:50:20.285Z,12.28
2018-05-21T02:51:28.936Z,12.33
2018-05-21T02:52:37.577Z,12.29
2018-05-21T02:53:46.220Z,12.43
2018-05-21T02:54:55.661Z,12.44
2018-05-21T02:56:04.571Z,12.37
2018-05-21T02:57:13.224Z,12.53
2018-05-21T02:58:21.868Z,12.43
2018-05-21T02:59:30.507Z,12.33
2018-05-21T03:00:39.151Z,12.32
2018-05-21T03:01:47.941Z,12.39
2018-05-21T03:02:56.887Z,12.43
2018-05-21T03:04:05.768Z,12.48
2018-05-21T03:05:14.511Z,12.43
2018-05-21T03:06:23.145Z,12.55
2018-05-21T03:07:31.800Z,12.51
2018-05-21T03:08:40.700Z,12.63
2018-05-21T03:09:49.346Z,12.54
2018-05-21T03:10:57.980Z,12.55
2018-05-21T03:12:06.633Z,12.51
2018-05-21T03:13:15.539Z,12.53
2018-05-21T03:14:24.184Z,12.51
2018-05-21T03:15:32.817Z,12.54
2018-05-21T03:16:41.462Z,12.55
2018-05-21T03:17:50.108Z,12.5
2018-05-21T03:18:59.021Z,12.5
2018-05-21T03:20:07.671Z,12.37
2018-05-21T03:21:16.305Z,12.4
2018-05-21T03:22:24.953Z,12.4
2018-05-21T03:23:33.859Z,12.39
2018-05-21T03:24:42.787Z,12.4
2018-05-21T03:25:51.684Z,12.39
2018-05-21T03:27:00.330Z,12.36
2018-05-21T03:28:09.236Z,12.36
2018-05-21T03:29:18.146Z,12.26
2018-05-21T03:30:26.786Z,12.3
2018-05-21T03:31:36.502Z,12.26
2018-05-21T03:32:45.147Z,12.25
2018-05-21T03:33:53.797Z,12.14
2018-05-21T03:35:02.441Z,12.11
2018-05-21T03:36:11.342Z,12.08
2018-05-21T03:37:19.982Z,12.18
2018-05-21T03:38:28.627Z,12.15
2018-05-21T03:39:37.276Z,12.18
2018-05-21T03:40:45.917Z,12.21
2018-05-21T03:41:54.567Z,12.08
2018-05-21T03:43:03.202Z,12.18
2018-05-21T03:44:11.851Z,12.08
2018-05-21T03:45:20.755Z,12.08
2018-05-21T03:46:29.404Z,11.96
2018-05-21T03:47:38.038Z,11.99
2018-05-21T03:48:46.691Z,11.99
2018-05-21T03:49:55.333Z,12.12
2018-05-21T03:51:03.977Z,12
2018-05-21T03:52:12.887Z,12.03
2018-05-21T03:53:21.522Z,12.1
2018-05-21T03:54:30.170Z,12.12
2018-05-21T03:55:38.813Z,11.99
2018-05-21T03:56:47.458Z,11.97
2018-05-21T03:57:56.099Z,12.15
2018-05-21T03:59:04.783Z,12.11
2018-05-21T04:00:13.647Z,12.2
2018-05-21T04:01:22.294Z,12.15
2018-05-21T04:02:30.933Z,12.1
2018-05-21T04:03:39.574Z,12.2
2018-05-21T04:04:48.483Z,12.26
2018-05-21T04:05:57.399Z,12.18
2018-05-21T04:07:06.038Z,12.26
2018-05-21T04:08:14.682Z,12.14
2018-05-21T04:09:23.322Z,12.14
2018-05-21T04:10:31.972Z,12.25
2018-05-21T04:11:40.612Z,12.2
2018-05-21T04:12:49.256Z,12.23
2018-05-21T04:13:57.896Z,12.21
2018-05-21T04:15:06.539Z,12.11
2018-05-21T04:16:15.447Z,12.12
2018-05-21T04:17:24.091Z,12.28
2018-05-21T04:18:33.006Z,12.18
2018-05-21T04:19:41.641Z,12.29
2018-05-21T04:20:50.294Z,12.33
2018-05-21T04:21:58.933Z,12.3
2018-05-21T04:23:07.577Z,12.32
2018-05-21T04:24:16.211Z,12.33
2018-05-21T04:25:24.861Z,12.25
2018-05-21T04:26:33.502Z,12.26
2018-05-21T04:27:42.149Z,12.23
2018-05-21T04:28:50.788Z,12.25
2018-05-21T04:29:59.433Z,12.28
2018-05-21T04:31:08.346Z,12.29
2018-05-21T04:32:16.991Z,12.3
2018-05-21T04:33:25.912Z,12.28
2018-05-21T04:34:34.551Z,12.35
2018-05-21T04:35:43.198Z,12.25
2018-05-21T04:36:51.841Z,12.4
2018-05-21T04:38:00.493Z,12.39
2018-05-21T04:39:09.402Z,12.58
2018-05-21T04:40:18.307Z,12.58
2018-05-21T04:41:26.951Z,12.51
2018-05-21T04:42:35.600Z,12.63
2018-05-21T04:43:44.238Z,12.61
2018-05-21T04:44:52.884Z,12.57
2018-05-21T04:46:01.802Z,12.61
2018-05-21T04:47:10.448Z,12.62
2018-05-21T04:48:19.088Z,12.58
2018-05-21T04:49:27.731Z,12.62
2018-05-21T04:50:36.899Z,12.65
2018-05-21T04:51:45.539Z,12.66
2018-05-21T04:52:54.187Z,12.68
2018-05-21T04:54:02.831Z,12.66
2018-05-21T04:55:11.750Z,12.63
2018-05-21T04:56:20.379Z,12.72
2018-05-21T04:57:29.033Z,12.72
2018-05-21T04:58:37.677Z,12.76
2018-05-21T04:59:46.325Z,12.83
2018-05-21T05:00:54.964Z,12.84
2018-05-21T05:02:03.612Z,12.87
2018-05-21T05:03:12.255Z,12.87
2018-05-21T05:04:20.903Z,12.94
2018-05-21T05:05:29.539Z,12.99
2018-05-21T05:06:38.182Z,12.94
2018-05-21T05:07:46.832Z,13.17
2018-05-21T05:08:55.740Z,13.13
2018-05-21T05:10:04.385Z,13.26
2018-05-21T05:11:13.020Z,13.36
2018-05-21T05:12:21.663Z,13.37
2018-05-21T05:13:30.302Z,13.42
2018-05-21T05:14:38.957Z,13.52
2018-05-21T05:15:47.593Z,13.61
2018-05-21T05:16:56.244Z,13.55
2018-05-21T05:18:05.423Z,13.61
2018-05-21T05:19:14.084Z,13.62
2018-05-21T05:20:22.721Z,13.7
2018-05-21T05:21:31.630Z,13.71
2018-05-21T05:22:40.272Z,13.7
2018-05-21T05:23:48.928Z,13.64
2018-05-21T05:24:57.571Z,13.78
2018-05-21T05:26:06.479Z,13.93
2018-05-21T05:27:15.121Z,14.03
2018-05-21T05:28:23.763Z,14.04
2018-05-21T05:29:32.414Z,14.13
2018-05-21T05:30:41.059Z,14.13
2018-05-21T05:31:49.707Z,14.18
2018-05-21T05:32:58.343Z,14.23
2018-05-21T05:34:06.998Z,14.28
2018-05-21T05:35:15.640Z,14.33
2018-05-21T05:36:24.290Z,14.44
2018-05-21T05:37:32.925Z,14.43
2018-05-21T05:38:41.575Z,14.51
2018-05-21T05:39:50.218Z,14.56
2018-05-21T05:40:58.867Z,14.68
2018-05-21T05:42:07.538Z,14.66
2018-05-21T05:43:16.153Z,14.71
2018-05-21T05:44:24.801Z,14.78
2018-05-21T05:45:33.448Z,14.92
2018-05-21T05:46:42.098Z,14.9
2018-05-21T05:47:51.263Z,14.94
2018-05-21T05:48:59.911Z,14.97
2018-05-21T05:50:08.557Z,14.96
2018-05-21T05:51:17.206Z,15.05
2018-05-21T05:52:26.115Z,15.19
2018-05-21T05:53:34.761Z,15.26
2018-05-21T05:54:43.405Z,15.29
2018-05-21T05:55:52.055Z,15.29
2018-05-21T05:57:00.695Z,15.36
2018-05-21T05:58:09.345Z,15.39
2018-05-21T05:59:17.987Z,15.45
2018-05-21T06:00:26.636Z,15.5
2018-05-21T06:01:35.279Z,15.57
2018-05-21T06:02:43.923Z,15.65
2018-05-21T06:03:52.566Z,15.6
2018-05-21T06:05:01.208Z,15.55
2018-05-21T06:06:10.386Z,15.66
2018-05-21T06:07:19.032Z,15.65
2018-05-21T06:08:27.942Z,15.7
2018-05-21T06:09:36.582Z,15.72
2018-05-21T06:10:45.231Z,15.65
2018-05-21T06:11:53.876Z,15.76
2018-05-21T06:13:02.524Z,15.84
2018-05-21T06:14:11.166Z,15.88
2018-05-21T06:15:19.817Z,15.96
2018-05-21T06:16:28.467Z,15.98
2018-05-21T06:17:37.116Z,16.09
2018-05-21T06:18:45.754Z,16.13
2018-05-21T06:19:54.400Z,16.29
2018-05-21T06:21:03.045Z,16.29
2018-05-21T06:22:11.692Z,16.26
2018-05-21T06:23:20.341Z,16.36
2018-05-21T06:24:29.247Z,16.41
2018-05-21T06:25:37.893Z,16.37
2018-05-21T06:26:46.539Z,16.44
2018-05-21T06:27:55.189Z,16.47
2018-05-21T06:29:04.099Z,16.64
2018-05-21T06:30:12.745Z,16.58
2018-05-21T06:31:21.389Z,16.64
2018-05-21T06:32:30.039Z,16.73
2018-05-21T06:33:38.678Z,16.74
2018-05-21T06:34:47.327Z,16.73
2018-05-21T06:35:55.970Z,16.73
2018-05-21T06:37:04.627Z,16.8
2018-05-21T06:38:13.532Z,16.77
2018-05-21T06:39:22.179Z,16.86
2018-05-21T06:40:30.823Z,16.82
2018-05-21T06:41:39.465Z,16.92
2018-05-21T06:42:48.116Z,16.99
2018-05-21T06:43:56.763Z,16.98
2018-05-21T06:45:05.408Z,16.98
2018-05-21T06:46:14.049Z,17.02
2018-05-21T06:47:22.702Z,17.12
2018-05-21T06:48:31.348Z,17.14
2018-05-21T06:49:39.997Z,17.17
2018-05-21T06:50:48.645Z,17.19
2018-05-21T06:51:57.287Z,17.31
2018-05-21T06:53:05.939Z,17.34
2018-05-21T06:54:14.846Z,17.39
2018-05-21T06:55:23.498Z,17.38
2018-05-21T06:56:32.143Z,17.42
2018-05-21T06:57:40.790Z,17.41
2018-05-21T06:58:49.437Z,17.46
2018-05-21T06:59:58.085Z,17.5
2018-05-21T07:01:06.999Z,17.53
2018-05-21T07:02:15.645Z,17.54
2018-05-21T07:03:24.296Z,17.53
2018-05-21T07:04:32.936Z,17.59
2018-05-21T07:05:41.593Z,17.71
2018-05-21T07:06:50.248Z,17.75
2018-05-21T07:07:58.975Z,17.79
2018-05-21T07:09:07.909Z,17.87
2018-05-21T07:10:16.836Z,17.82
2018-05-21T07:11:25.476Z,17.84
2018-05-21T07:12:34.126Z,17.91
2018-05-21T07:13:42.776Z,17.95
2018-05-21T07:14:51.420Z,17.88
2018-05-21T07:16:00.068Z,18.02
2018-05-21T07:17:08.715Z,18.08
2018-05-21T07:18:17.409Z,18.05
2018-05-21T07:19:26.006Z,18.11
2018-05-21T07:20:34.652Z,18.18
2018-05-21T07:21:43.299Z,18.24
2018-05-21T07:22:51.952Z,18.28
2018-05-21T07:24:00.599Z,18.18
2018-05-21T07:25:09.247Z,18.33
2018-05-21T07:26:17.896Z,18.39
2018-05-21T07:27:26.549Z,18.41
2018-05-21T07:28:35.193Z,18.39
2018-05-21T07:29:44.106Z,18.46
2018-05-21T07:30:52.757Z,18.53
2018-05-21T07:32:01.402Z,18.55
2018-05-21T07:33:10.048Z,18.49
2018-05-21T07:34:18.967Z,18.61
2018-05-21T07:35:27.611Z,18.66
2018-05-21T07:36:36.258Z,18.73
2018-05-21T07:37:45.173Z,18.79
2018-05-21T07:38:53.925Z,18.86
2018-05-21T07:40:02.468Z,18.81
2018-05-21T07:41:11.112Z,18.85
2018-05-21T07:42:19.762Z,18.89
2018-05-21T07:43:28.411Z,18.96
2018-05-21T07:44:37.061Z,18.98
2018-05-21T07:45:45.699Z,19.04
2018-05-21T07:46:54.350Z,19
2018-05-21T07:48:02.996Z,19
2018-05-21T07:49:11.651Z,19.11
2018-05-21T07:50:20.557Z,19.19
2018-05-21T07:51:29.251Z,19.15
2018-05-21T07:52:37.862Z,19.16
2018-05-21T07:53:46.508Z,19.12
2018-05-21T07:54:55.161Z,19.22
2018-05-21T07:56:03.800Z,19.26
2018-05-21T07:57:12.458Z,19.24
2018-05-21T07:58:21.440Z,19.34
2018-05-21T07:59:30.019Z,19.42
2018-05-21T08:00:38.657Z,19.39
2018-05-21T08:01:47.313Z,19.41
2018-05-21T08:02:56.216Z,19.48
2018-05-21T08:04:04.872Z,19.57
2018-05-21T08:05:13.887Z,19.6
2018-05-21T08:06:22.525Z,19.7
2018-05-21T08:07:31.170Z,19.74
2018-05-21T08:08:39.826Z,19.72
2018-05-21T08:09:48.475Z,19.79
2018-05-21T08:10:57.120Z,19.72
2018-05-21T08:12:06.063Z,19.81
2018-05-21T08:13:14.709Z,19.89
2018-05-21T08:14:23.366Z,19.93
2018-05-21T08:15:32.277Z,19.97
2018-05-21T08:16:41.201Z,20.08
2018-05-21T08:17:49.841Z,20.1
2018-05-21T08:18:58.497Z,20
2018-05-21T08:20:07.145Z,20.11
2018-05-21T08:21:15.795Z,20.1
2018-05-21T08:22:24.434Z,20.11
2018-05-21T08:23:33.357Z,20.14
2018-05-21T08:24:42.003Z,20.15
2018-05-21T08:25:50.654Z,20.26
2018-05-21T08:26:59.596Z,20.22
2018-05-21T08:28:08.204Z,20.24
2018-05-21T08:29:16.860Z,20.3
2018-05-21T08:30:25.513Z,20.26
2018-05-21T08:31:34.163Z,20.33
2018-05-21T08:32:42.803Z,20.33
2018-05-21T08:33:51.459Z,20.5
2018-05-21T08:35:00.101Z,20.46
2018-05-21T08:36:08.760Z,20.58
2018-05-21T08:37:17.404Z,20.66
2018-05-21T08:38:26.064Z,20.73
2018-05-21T08:39:34.706Z,20.7
2018-05-21T08:40:43.372Z,20.77
2018-05-21T08:41:52.008Z,20.78
2018-05-21T08:43:00.665Z,20.89
2018-05-21T08:44:09.313Z,20.9
2018-05-21T08:45:17.976Z,20.96
2018-05-21T08:46:26.622Z,20.98
2018-05-21T08:47:35.266Z,21.11
2018-05-21T08:48:43.920Z,21.14
2018-05-21T08:49:52.952Z,21.2
2018-05-21T08:51:01.598Z,21.23
2018-05-21T08:52:10.247Z,21.29
2018-05-21T08:53:18.899Z,21.29
2018-05-21T08:54:27.558Z,21.26
2018-05-21T08:55:36.207Z,21.4
2018-05-21T08:56:44.853Z,21.38
2018-05-21T08:57:53.502Z,21.4
2018-05-21T08:59:02.156Z,21.4
2018-05-21T09:00:10.802Z,21.37
2018-05-21T09:01:19.976Z,21.37
2018-05-21T09:02:28.629Z,21.43
2018-05-21T09:03:37.286Z,21.4
2018-05-21T09:04:45.995Z,21.4
2018-05-21T09:05:54.842Z,21.45
2018-05-21T09:07:03.488Z,21.48
2018-05-21T09:08:12.137Z,21.5
2018-05-21T09:09:20.794Z,21.56
2018-05-21T09:10:29.446Z,21.56
2018-05-21T09:11:38.096Z,21.51
2018-05-21T09:12:46.741Z,21.51
2018-05-21T09:13:55.670Z,21.54
2018-05-21T09:15:04.675Z,21.62
2018-05-21T09:16:13.371Z,21.68
2018-05-21T09:17:21.978Z,21.72
2018-05-21T09:18:30.633Z,21.77
2018-05-21T09:19:39.280Z,21.75
2018-05-21T09:20:47.934Z,21.78
2018-05-21T09:21:56.579Z,21.83
2018-05-21T09:23:05.232Z,21.66
2018-05-21T09:24:13.883Z,21.74
2018-05-21T09:25:22.535Z,21.72
2018-05-21T09:26:31.187Z,21.72
2018-05-21T09:27:39.832Z,21.84
2018-05-21T09:28:48.483Z,21.94
2018-05-21T09:29:57.135Z,21.83
2018-05-21T09:31:05.789Z,21.99
2018-05-21T09:32:14.434Z,22
2018-05-21T09:33:23.083Z,22.06
2018-05-21T09:34:31.732Z,22.08
2018-05-21T09:35:40.655Z,22.16
2018-05-21T09:36:49.300Z,22.19
2018-05-21T09:37:57.952Z,22.21
2018-05-21T09:39:06.598Z,22.22
2018-05-21T09:40:15.254Z,22.21
2018-05-21T09:41:23.900Z,22.15
2018-05-21T09:42:32.554Z,22.26
2018-05-21T09:43:41.203Z,22.31
2018-05-21T09:44:49.853Z,22.41
2018-05-21T09:45:58.509Z,22.49
2018-05-21T09:47:07.157Z,22.53
2018-05-21T09:48:15.868Z,22.58
2018-05-21T09:49:24.455Z,22.56
2018-05-21T09:50:33.642Z,22.61
2018-05-21T09:51:42.290Z,22.62
2018-05-21T09:52:50.956Z,22.58
2018-05-21T09:53:59.591Z,22.65
2018-05-21T09:55:08.252Z,22.76
2018-05-21T09:56:16.902Z,22.76
2018-05-21T09:57:25.553Z,22.93
2018-05-21T09:58:34.461Z,22.98
2018-05-21T09:59:43.113Z,23.07
2018-05-21T10:00:51.769Z,23.17
2018-05-21T10:02:00.423Z,23.28
2018-05-21T10:03:09.075Z,23.25
2018-05-21T10:04:17.719Z,23.29
2018-05-21T10:05:26.375Z,23.28
2018-05-21T10:06:35.021Z,23.21
2018-05-21T10:07:43.686Z,23.25
2018-05-21T10:08:52.860Z,23.23
2018-05-21T10:10:01.789Z,23.32
2018-05-21T10:11:10.433Z,23.25
2018-05-21T10:12:19.100Z,23.36
2018-05-21T10:13:27.742Z,23.4
2018-05-21T10:14:36.400Z,23.4
2018-05-21T10:15:45.049Z,23.49
2018-05-21T10:16:53.708Z,23.51
2018-05-21T10:18:02.361Z,23.48
2018-05-21T10:19:11.007Z,23.52
2018-05-21T10:20:19.656Z,23.52
2018-05-21T10:21:28.574Z,23.62
2018-05-21T10:22:37.231Z,23.62
2018-05-21T10:23:45.879Z,23.7
2018-05-21T10:24:54.537Z,23.71
2018-05-21T10:26:03.500Z,23.64
2018-05-21T10:27:12.500Z,23.69
2018-05-21T10:28:21.144Z,23.7
2018-05-21T10:29:30.125Z,23.81
2018-05-21T10:30:38.769Z,23.71
2018-05-21T10:31:47.703Z,23.74
2018-05-21T10:32:56.355Z,23.74
2018-05-21T10:34:05.283Z,23.76
2018-05-21T10:35:13.926Z,23.77
2018-05-21T10:36:22.580Z,23.76
2018-05-21T10:37:31.237Z,23.73
2018-05-21T10:38:39.889Z,23.77
2018-05-21T10:39:48.544Z,23.62
2018-05-21T10:40:57.185Z,23.67
2018-05-21T10:42:05.838Z,23.71
2018-05-21T10:43:14.488Z,23.64
2018-05-21T10:44:23.151Z,23.79
2018-05-21T10:45:31.802Z,23.77
2018-05-21T10:46:40.452Z,23.89
2018-05-21T10:47:49.377Z,23.92
2018-05-21T10:48:58.019Z,23.99
2018-05-21T10:50:06.676Z,24.11
2018-05-21T10:51:15.338Z,24.07
2018-05-21T10:52:23.983Z,24.1
2018-05-21T10:53:32.627Z,24.19
2018-05-21T10:54:41.281Z,24.16
2018-05-21T10:55:49.939Z,24.19
2018-05-21T10:56:58.589Z,24.24
2018-05-21T10:58:07.243Z,24.16
2018-05-21T10:59:15.888Z,24.22
2018-05-21T11:00:24.550Z,24.21
2018-05-21T11:01:33.461Z,24.25
2018-05-21T11:02:42.124Z,24.18
2018-05-21T11:03:51.037Z,24.18
2018-05-21T11:04:59.703Z,24.19
2018-05-21T11:06:08.610Z,24.22
2018-05-21T11:07:17.269Z,24.26
2018-05-21T11:08:25.913Z,24.14
2018-05-21T11:09:34.570Z,24.24
2018-05-21T11:10:43.216Z,24.25
2018-05-21T11:11:51.879Z,24.37
2018-05-21T11:13:00.527Z,24.28
2018-05-21T11:14:09.175Z,24.37
2018-05-21T11:15:17.823Z,24.38
2018-05-21T11:16:26.476Z,24.32
2018-05-21T11:17:35.138Z,24.32
2018-05-21T11:18:43.786Z,24.34
2018-05-21T11:19:52.443Z,24.37
2018-05-21T11:21:01.364Z,24.48
2018-05-21T11:22:10.021Z,24.56
2018-05-21T11:23:18.667Z,24.65
2018-05-21T11:24:27.329Z,24.74
2018-05-21T11:25:35.966Z,24.77
2018-05-21T11:26:44.626Z,24.84
2018-05-21T11:27:53.276Z,24.85
2018-05-21T11:29:01.930Z,24.79
2018-05-21T11:30:10.573Z,24.84
2018-05-21T11:31:19.501Z,24.88
2018-05-21T11:32:28.165Z,24.94
2018-05-21T11:33:36.822Z,24.84
2018-05-21T11:34:45.474Z,24.97
2018-05-21T11:35:54.118Z,24.81
2018-05-21T11:37:02.779Z,24.92
2018-05-21T11:38:11.690Z,24.89
2018-05-21T11:39:20.351Z,24.89
2018-05-21T11:40:28.992Z,24.94
2018-05-21T11:41:37.651Z,25.03
2018-05-21T11:42:46.301Z,25.14
2018-05-21T11:43:54.963Z,25.01
2018-05-21T11:45:03.880Z,25.03
2018-05-21T11:46:12.535Z,24.93
2018-05-21T11:47:21.189Z,24.99
2018-05-21T11:48:29.848Z,24.82
2018-05-21T11:49:38.499Z,24.92
2018-05-21T11:50:47.244Z,24.82
2018-05-21T11:51:55.800Z,24.85
2018-05-21T11:53:04.451Z,24.75
2018-05-21T11:54:13.110Z,24.84
2018-05-21T11:55:21.763Z,24.96
2018-05-21T11:56:30.416Z,25.04
2018-05-21T11:57:39.067Z,25.01
2018-05-21T11:58:47.992Z,24.99
2018-05-21T11:59:56.644Z,25
2018-05-21T12:01:05.300Z,25.06
2018-05-21T12:02:13.950Z,25.03
2018-05-21T12:03:22.607Z,24.97
2018-05-21T12:04:31.530Z,25.04
2018-05-21T12:05:40.176Z,25.01
2018-05-21T12:06:49.094Z,25.06
2018-05-21T12:07:57.749Z,25.04
2018-05-21T12:09:06.404Z,25.14
2018-05-21T12:10:15.058Z,25.16
2018-05-21T12:11:23.714Z,25.11
2018-05-21T12:12:32.362Z,25.18
2018-05-21T12:13:41.018Z,25.25
2018-05-21T12:14:49.671Z,25.29
2018-05-21T12:15:58.331Z,25.29
2018-05-21T12:17:06.979Z,25.39
2018-05-21T12:18:15.903Z,25.46
2018-05-21T12:19:24.656Z,25.51
2018-05-21T12:20:33.595Z,25.49
2018-05-21T12:21:42.511Z,25.55
2018-05-21T12:22:51.161Z,25.54
2018-05-21T12:24:00.077Z,25.49
2018-05-21T12:25:09.004Z,25.52
2018-05-21T12:26:17.661Z,25.44
2018-05-21T12:27:26.311Z,25.33
2018-05-21T12:28:35.238Z,25.31
2018-05-21T12:29:43.870Z,25.36
2018-05-21T12:30:52.527Z,25.33
2018-05-21T12:32:01.183Z,25.29
2018-05-21T12:33:10.096Z,25.37
2018-05-21T12:34:19.004Z,25.31
2018-05-21T12:35:27.662Z,25.4
2018-05-21T12:36:36.315Z,25.34
2018-05-21T12:37:44.970Z,25.36
2018-05-21T12:38:53.619Z,25.3
2018-05-21T12:40:02.278Z,25.33
2018-05-21T12:41:11.195Z,25.39
2018-05-21T12:42:19.852Z,25.34
2018-05-21T12:43:28.497Z,25.46
2018-05-21T12:44:37.160Z,25.37
2018-05-21T12:45:46.081Z,25.51
2018-05-21T12:46:54.772Z,25.59
2018-05-21T12:48:04.106Z,25.67
2018-05-21T12:49:12.748Z,25.71
2018-05-21T12:50:21.410Z,25.68
2018-05-21T12:51:30.058Z,25.71
2018-05-21T12:52:38.720Z,25.59
2018-05-21T12:53:47.367Z,25.49
2018-05-21T12:54:56.021Z,25.49
2018-05-21T12:56:04.670Z,25.44
2018-05-21T12:57:13.611Z,25.44
2018-05-21T12:58:22.253Z,25.44
2018-05-21T12:59:30.910Z,25.37
2018-05-21T13:00:39.561Z,25.44
2018-05-21T13:01:48.490Z,25.46
2018-05-21T13:02:57.414Z,25.56
2018-05-21T13:04:06.064Z,25.56
2018-05-21T13:05:14.789Z,25.77
2018-05-21T13:06:23.363Z,25.74
2018-05-21T13:07:32.290Z,25.68
2018-05-21T13:08:40.941Z,25.61
2018-05-21T13:09:49.603Z,25.55
2018-05-21T13:10:58.510Z,25.56
2018-05-21T13:12:07.172Z,25.61
2018-05-21T13:13:15.821Z,25.44
2018-05-21T13:14:24.483Z,25.54
2018-05-21T13:15:33.125Z,25.44
2018-05-21T13:16:41.786Z,25.44
2018-05-21T13:17:50.438Z,25.43
2018-05-21T13:18:59.093Z,25.51
2018-05-21T13:20:07.738Z,25.51
2018-05-21T13:21:16.394Z,25.51
2018-05-21T13:22:25.053Z,25.43
2018-05-21T13:23:33.974Z,25.62
2018-05-21T13:24:42.895Z,25.56
2018-05-21T13:25:51.539Z,25.54
2018-05-21T13:27:00.197Z,25.48
2018-05-21T13:28:08.846Z,25.62
2018-05-21T13:29:17.509Z,25.58
2018-05-21T13:30:26.154Z,25.58
2018-05-21T13:31:34.812Z,25.48
2018-05-21T13:32:43.462Z,25.54
2018-05-21T13:33:52.125Z,25.56
2018-05-21T13:35:00.767Z,25.56
2018-05-21T13:36:09.424Z,25.41
2018-05-21T13:37:18.075Z,25.44
2018-05-21T13:38:26.738Z,25.46
2018-05-21T13:39:35.389Z,25.46
2018-05-21T13:40:44.041Z,25.41
2018-05-21T13:41:52.690Z,25.51
2018-05-21T13:43:01.341Z,25.55
2018-05-21T13:44:09.999Z,25.56
2018-05-21T13:45:18.653Z,25.7
2018-05-21T13:46:27.306Z,25.59
2018-05-21T13:47:35.956Z,25.56
2018-05-21T13:48:44.618Z,25.54
2018-05-21T13:49:53.267Z,25.58
2018-05-21T13:51:01.922Z,25.67
2018-05-21T13:52:10.605Z,25.66
2018-05-21T13:53:19.540Z,25.55
2018-05-21T13:54:28.460Z,25.61
2018-05-21T13:55:37.380Z,25.52
2018-05-21T13:56:46.030Z,25.55
2018-05-21T13:57:54.685Z,25.51
2018-05-21T13:59:03.340Z,25.54
2018-05-21T14:00:11.996Z,25.51
2018-05-21T14:01:20.654Z,25.48
2018-05-21T14:02:29.307Z,25.46
2018-05-21T14:03:38.227Z,25.43
2018-05-21T14:04:46.877Z,25.44
2018-05-21T14:05:55.534Z,25.44
2018-05-21T14:07:04.186Z,25.49
2018-05-21T14:08:12.842Z,25.49
2018-05-21T14:09:21.503Z,25.55
2018-05-21T14:10:30.427Z,25.46
2018-05-21T14:11:39.075Z,25.56
2018-05-21T14:12:47.731Z,25.54
2018-05-21T14:13:56.382Z,25.55
2018-05-21T14:15:05.040Z,25.61
2018-05-21T14:16:13.751Z,25.58
2018-05-21T14:17:22.417Z,25.56
2018-05-21T14:18:30.993Z,25.55
2018-05-21T14:19:39.647Z,25.61
2018-05-21T14:20:48.570Z,25.56
2018-05-21T14:21:57.223Z,25.59
2018-05-21T14:23:05.884Z,25.63
2018-05-21T14:24:14.522Z,25.48
2018-05-21T14:25:23.463Z,25.52
2018-05-21T14:26:32.384Z,25.49
2018-05-21T14:27:41.304Z,25.44
2018-05-21T14:28:49.953Z,25.4
2018-05-21T14:29:58.611Z,25.36
2018-05-21T14:31:07.274Z,25.33
2018-05-21T14:32:15.928Z,25.36
2018-05-21T14:33:24.583Z,25.33
2018-05-21T14:34:33.236Z,25.37
2018-05-21T14:35:41.889Z,25.33
2018-05-21T14:36:50.547Z,25.25
2018-05-21T14:37:59.205Z,25.36
2018-05-21T14:39:07.852Z,25.31
2018-05-21T14:40:16.533Z,25.26
2018-05-21T14:41:25.162Z,25.31
2018-05-21T14:42:34.075Z,25.37
2018-05-21T14:43:42.743Z,25.29
2018-05-21T14:44:51.391Z,25.33
2018-05-21T14:46:00.044Z,25.31
2018-05-21T14:47:08.975Z,25.43
2018-05-21T14:48:17.677Z,25.43